createdAt,value
2018-11-12T06:27:16.001Z,0.00
2018-11-12T06:28:16.784Z,0.00
2018-11-12T06:29:15.862Z,0.00
2018-11-12T06:30:15.744Z,0.00
2018-11-12T06:31:15.861Z,0.00
2018-11-12T06:32:15.669Z,0.00
2018-11-12T06:33:15.693Z,0.00
2018-11-12T06:34:15.871Z,0.00
2018-11-12T06:35:15.527Z,0.00
2018-11-12T06:36:15.483Z,0.00
2018-11-12T06:37:15.542Z,0.00
2018-11-12T06:38:15.401Z,0.00
2018-11-12T06:39:15.366Z,0.00
2018-11-12T06:40:15.608Z,0.00
2018-11-12T06:41:15.264Z,0.00
2018-11-12T06:42:15.223Z,0.00
2018-11-12T06:43:15.267Z,0.00
2018-11-12T06:44:15.137Z,0.00
2018-11-12T06:45:15.122Z,0.00
2018-11-12T06:46:15.398Z,0.00
2018-11-12T06:47:15.008Z,0.00
2018-11-12T06:48:14.961Z,0.00
2018-11-12T06:49:14.916Z,0.00
2018-11-12T06:50:14.878Z,0.00
2018-11-12T06:51:15.578Z,0.00
2018-11-12T06:52:15.040Z,0.00
2018-11-12T06:53:15.039Z,0.00
2018-11-12T06:54:15.052Z,5.63
2018-11-12T06:55:15.100Z,5.63
2018-11-12T06:56:14.614Z,5.63
2018-11-12T06:57:14.819Z,5.63
2018-11-12T06:58:14.526Z,5.63
2018-11-12T07:07:04.928Z,5.63
2018-11-12T07:08:04.229Z,5.63
2018-11-12T07:22:52.713Z,22.50
2018-11-12T07:23:52.867Z,22.50
2018-11-12T07:24:52.875Z,28.13
2018-11-12T07:26:52.786Z,28.13
2018-11-12T07:27:52.494Z,28.13
2018-11-12T07:28:52.349Z,28.13
2018-11-12T07:29:52.556Z,22.50
2018-11-12T07:30:52.562Z,16.88
2018-11-12T07:31:52.217Z,16.88
2018-11-12T07:32:52.276Z,11.25
2018-11-12T07:33:52.131Z,11.25
2018-11-12T07:34:52.439Z,11.25
2018-11-12T07:35:52.044Z,11.25
2018-11-12T07:36:52.099Z,11.25
2018-11-12T07:37:52.310Z,11.25
2018-11-12T07:38:51.915Z,11.25
2018-11-12T07:39:51.971Z,11.25
2018-11-12T07:40:51.942Z,16.88
2018-11-12T07:41:51.959Z,16.88
2018-11-12T07:42:52.109Z,22.50
2018-11-12T07:43:51.700Z,22.50
2018-11-12T07:50:43.971Z,33.75
2018-11-12T07:51:44.228Z,33.75
2018-11-12T08:59:40.721Z,39.38
2018-11-12T09:00:40.598Z,39.38
2018-11-12T09:11:44.111Z,61.88
2018-11-12T09:12:44.617Z,67.50
2018-11-12T09:27:29.160Z,95.63
2018-11-12T09:28:29.668Z,78.75
2018-11-12T09:29:29.095Z,67.50
2018-11-12T09:30:29.026Z,56.25
2018-11-12T09:31:29.649Z,45.00
2018-11-12T09:32:29.327Z,45.00
2018-11-12T09:33:29.124Z,45.00
2018-11-12T09:34:29.192Z,50.63
2018-11-12T09:36:28.911Z,56.25
2018-11-12T09:37:28.769Z,50.63
2018-11-12T09:38:28.846Z,50.63
2018-11-12T09:39:28.666Z,56.25
2018-11-12T09:40:28.999Z,61.88
2018-11-12T09:41:28.730Z,61.88
2018-11-12T09:42:28.544Z,61.88
2018-11-12T09:43:28.807Z,73.13
2018-11-12T09:44:28.428Z,101.25
2018-11-12T09:45:28.385Z,112.50
2018-11-12T09:46:28.736Z,118.13
2018-11-12T09:47:28.396Z,106.88
2018-11-12T09:48:28.253Z,95.63
2018-11-12T09:50:12.040Z,90.00
2018-11-12T09:51:11.746Z,90.00
2018-11-12T09:52:11.715Z,84.38
2018-11-12T09:53:12.109Z,95.63
2018-11-12T09:54:11.886Z,106.88
2018-11-12T10:05:21.327Z,163.13
2018-11-12T10:06:22.207Z,174.38
2018-11-12T10:07:21.816Z,174.38
2018-11-12T10:08:21.838Z,163.13
2018-11-12T10:24:13.722Z,112.50
2018-11-12T10:25:13.420Z,151.88
2018-11-12T10:26:13.326Z,185.63
2018-11-12T10:27:13.336Z,174.38
2018-11-12T10:28:13.249Z,180.00
2018-11-12T10:29:13.404Z,168.75
2018-11-12T10:30:13.708Z,146.25
2018-11-12T10:31:13.247Z,112.50
2018-11-12T10:32:13.071Z,95.63
2018-11-12T10:33:13.127Z,106.88
2018-11-12T10:34:13.194Z,118.13
2018-11-12T10:35:13.046Z,174.38
2018-11-12T10:36:12.903Z,163.13
2018-11-12T10:37:13.157Z,123.75
2018-11-12T10:38:12.815Z,118.13
2018-11-12T10:39:12.873Z,112.50
2018-11-12T10:40:13.384Z,106.88
2018-11-12T10:41:12.761Z,106.88
2018-11-12T10:42:12.988Z,101.25
2018-11-12T10:43:12.711Z,101.25
2018-11-12T10:44:12.961Z,101.25
2018-11-12T10:45:12.519Z,101.25
2018-11-12T10:46:12.478Z,106.88
2018-11-12T10:47:12.438Z,106.88
2018-11-12T10:53:06.851Z,135.00
2018-11-12T10:54:06.972Z,123.75
2018-11-12T10:55:06.603Z,112.50
2018-11-12T10:56:06.867Z,106.88
2018-11-12T10:57:06.432Z,101.25
2018-11-12T10:58:06.387Z,123.75
2018-11-12T10:59:06.346Z,174.38
2018-11-12T11:00:06.202Z,219.38
2018-11-12T11:01:06.570Z,292.50
2018-11-12T11:13:08.326Z,191.25
2018-11-12T11:14:07.991Z,185.63
2018-11-12T11:15:07.849Z,174.38
2018-11-12T11:34:52.546Z,191.25
2018-11-12T11:47:09.649Z,101.25
2018-11-12T11:48:09.499Z,118.13
2018-11-12T11:49:09.257Z,135.00
2018-11-12T11:50:09.278Z,129.38
2018-11-12T11:51:09.125Z,129.38
2018-11-12T11:52:09.178Z,151.88
2018-11-12T11:53:09.037Z,163.13
2018-11-12T11:54:09.394Z,168.75
2018-11-12T11:57:34.800Z,151.88
2018-11-12T11:59:34.615Z,151.88
2018-11-12T12:59:03.673Z,50.63
2018-11-12T13:00:03.261Z,78.75
2018-11-12T13:02:03.232Z,101.25
2018-11-12T13:06:24.733Z,67.50
2018-11-12T13:08:22.178Z,90.00
2018-11-12T13:09:22.232Z,95.63
2018-11-12T13:10:22.442Z,95.63
2018-11-12T13:11:22.376Z,101.25
2018-11-12T13:12:22.106Z,84.38
2018-11-12T13:14:22.074Z,33.75
2018-11-12T13:15:22.130Z,56.25
2018-11-12T13:17:22.200Z,67.50
2018-11-12T13:18:21.757Z,67.50
2018-11-12T13:19:22.058Z,73.13
2018-11-12T13:20:21.824Z,67.50
2018-11-12T13:25:39.989Z,33.75
2018-11-12T13:26:40.143Z,45.00
2018-11-12T13:33:32.175Z,45.00
2018-11-12T15:10:14.103Z,5.63
2018-11-12T15:11:13.811Z,5.63
2018-11-12T15:18:43.412Z,5.63
2018-11-12T15:19:43.363Z,5.63
2018-11-12T15:20:43.518Z,5.63
2018-11-12T15:21:43.336Z,0.00
2018-11-12T15:22:43.344Z,0.00
2018-11-12T15:23:43.328Z,0.00
2018-11-12T15:24:43.146Z,0.00
2018-11-12T15:25:43.655Z,0.00
2018-11-12T15:26:43.067Z,5.63
2018-11-12T15:27:43.271Z,5.63
2018-11-12T15:28:43.225Z,5.63
2018-11-12T15:29:42.948Z,5.63
2018-11-12T15:30:43.038Z,0.00
2018-11-12T15:31:43.240Z,0.00
2018-11-12T15:32:42.907Z,0.00
2018-11-12T15:33:42.766Z,0.00
2018-11-12T15:34:42.724Z,0.00
2018-11-12T15:35:42.783Z,0.00
2018-11-12T15:36:42.929Z,0.00
2018-11-12T15:37:43.075Z,0.00
2018-11-12T15:38:42.661Z,0.00
2018-11-12T15:39:42.521Z,0.00
2018-11-12T15:40:42.561Z,0.00
2018-11-12T15:41:42.416Z,0.00
2018-11-12T15:42:42.672Z,0.00
2018-11-12T15:43:42.437Z,0.00
2018-11-12T15:45:42.643Z,0.00
2018-11-12T15:46:42.302Z,0.00
2018-11-12T15:47:42.163Z,0.00
2018-11-12T15:48:42.213Z,0.00
2018-11-12T15:49:42.074Z,0.00
2018-11-12T15:50:42.299Z,0.00
2018-11-12T15:51:42.445Z,0.00
2018-11-12T15:52:42.313Z,0.00
2018-11-12T15:53:42.199Z,0.00
2018-11-12T15:54:41.856Z,0.00
2018-11-12T15:55:41.911Z,0.00
2018-11-12T15:56:41.786Z,0.00
2018-11-12T15:57:41.916Z,0.00
2018-11-12T15:58:42.082Z,0.00
2018-11-12T15:59:41.649Z,0.00
2018-11-12T16:00:41.897Z,0.00
2018-11-12T16:01:41.752Z,0.00
2018-11-12T16:02:41.523Z,0.00
2018-11-12T16:03:41.619Z,0.00
2018-11-12T16:04:41.425Z,0.00
2018-11-12T16:05:41.684Z,0.00
2018-11-12T16:07:41.354Z,0.00
2018-11-12T16:08:41.300Z,0.00
2018-11-12T16:09:41.293Z,0.00
2018-11-12T16:10:41.381Z,0.00
2018-11-12T16:11:41.167Z,0.00
2018-11-12T16:12:41.377Z,0.00
2018-11-12T16:13:41.186Z,0.00
2018-11-12T16:14:41.045Z,0.00
2018-11-12T16:16:40.912Z,0.00
2018-11-12T16:17:40.862Z,0.00
2018-11-12T16:18:41.275Z,0.00
2018-11-12T16:19:40.784Z,0.00
2018-11-12T16:20:41.328Z,0.00
2018-11-12T16:21:40.742Z,0.00
2018-11-12T16:22:40.658Z,0.00
2018-11-12T16:23:40.756Z,0.00
2018-11-12T16:24:40.560Z,0.00
2018-11-12T16:25:42.252Z,0.00
2018-11-12T16:26:41.009Z,0.00
2018-11-12T16:27:40.548Z,0.00
2018-11-12T16:28:40.587Z,0.00
2018-11-12T16:29:40.742Z,0.00
2018-11-12T16:30:40.400Z,0.00
2018-11-12T16:31:40.566Z,0.00
2018-11-12T16:32:40.560Z,0.00
2018-11-12T16:33:40.537Z,0.00
2018-11-12T16:34:40.443Z,0.00
2018-11-12T16:35:40.285Z,0.00
2018-11-12T16:36:40.147Z,0.00
2018-11-12T16:37:40.002Z,0.00
2018-11-12T16:38:40.060Z,0.00
2018-11-12T16:39:40.015Z,0.00
2018-11-12T16:40:40.073Z,0.00
2018-11-12T16:41:39.925Z,0.00
2018-11-12T16:42:39.781Z,0.00
2018-11-12T16:43:39.838Z,0.00
2018-11-12T16:45:40.304Z,0.00
2018-11-12T16:46:39.709Z,0.00
2018-11-12T16:47:39.574Z,0.00
2018-11-12T16:48:39.623Z,0.00
2018-11-12T16:49:39.631Z,0.00
2018-11-12T16:50:39.788Z,0.00
2018-11-12T16:51:39.594Z,0.00
2018-11-12T16:52:39.600Z,0.00
2018-11-12T16:53:39.558Z,0.00
2018-11-12T16:54:39.514Z,0.00
2018-11-12T16:55:39.220Z,0.00
2018-11-12T16:56:39.275Z,0.00
2018-11-12T16:57:39.137Z,0.00
2018-11-12T16:58:39.289Z,0.00
2018-11-12T16:59:39.751Z,0.00
2018-11-12T17:00:39.152Z,0.00
2018-11-12T17:01:39.260Z,0.00
2018-11-12T17:02:38.925Z,0.00
2018-11-12T17:03:38.974Z,0.00
2018-11-12T17:04:39.301Z,0.00
2018-11-12T17:05:38.846Z,0.00
2018-11-12T17:06:40.600Z,0.00
2018-11-12T17:07:38.947Z,0.00
2018-11-12T17:08:39.799Z,0.00
2018-11-12T17:09:38.759Z,0.00
2018-11-12T17:10:38.851Z,0.00
2018-11-12T17:11:39.129Z,0.00
2018-11-12T17:12:39.089Z,0.00
2018-11-12T17:13:38.928Z,0.00
2018-11-12T17:14:38.434Z,0.00
2018-11-12T17:15:38.494Z,0.00
2018-11-12T17:16:39.251Z,0.00
2018-11-12T17:17:39.033Z,0.00
2018-11-12T17:18:38.293Z,0.00
2018-11-12T17:19:38.386Z,0.00
2018-11-12T17:20:38.597Z,0.00
2018-11-12T17:21:38.290Z,0.00
2018-11-12T17:22:38.653Z,0.00
2018-11-12T17:23:38.010Z,0.00
2018-11-12T17:24:38.045Z,0.00
2018-11-12T17:25:38.142Z,0.00
2018-11-12T17:26:37.951Z,0.00
2018-11-12T17:27:38.240Z,0.00
2018-11-12T17:28:38.253Z,0.00
2018-11-12T17:29:37.983Z,0.00
2018-11-12T17:30:38.105Z,0.00
2018-11-12T17:31:37.664Z,0.00
2018-11-12T17:32:37.720Z,0.00
2018-11-12T17:38:16.969Z,0.00
2018-11-12T17:39:16.477Z,0.00
